sensor_id;sensor_type;location;lat;lon;timestamp;P1;durP1;ratioP1;P2;durP2;ratioP2
11263;SDS011;5689;48.798;9.070;2023-04-23T00:00:05;0.20;;;0.20;;
11263;SDS011;5689;48.798;9.070;2023-04-23T00:02:42;0.20;;;0.20;;
11263;SDS011;5689;48.798;9.070;2023-04-23T00:05:12;0.10;;;0.10;;
11263;SDS011;5689;48.798;9.070;2023-04-23T00:07:41;0.20;;;0.20;;
11263;SDS011;5689;48.798;9.070;2023-04-23T00:10:10;0.10;;;0.10;;
11263;SDS011;5689;48.798;9.070;2023-04-23T00:12:39;0.10;;;0.10;;
11263;SDS011;5689;48.798;9.070;2023-04-23T00:15:09;0.10;;;0.10;;
11263;SDS011;5689;48.798;9.070;2023-04-23T00:17:39;0.10;;;0.10;;
11263;SDS011;5689;48.798;9.070;2023-04-23T00:20:08;0.10;;;0.10;;
11263;SDS011;5689;48.798;9.070;2023-04-23T00:22:36;0.10;;;0.10;;
11263;SDS011;5689;48.798;9.070;2023-04-23T00:25:05;0.10;;;0.10;;
11263;SDS011;5689;48.798;9.070;2023-04-23T00:27:33;0.10;;;0.10;;
11263;SDS011;5689;48.798;9.070;2023-04-23T00:30:01;0.10;;;0.10;;
11263;SDS011;5689;48.798;9.070;2023-04-23T00:32:29;0.10;;;0.10;;
11263;SDS011;5689;48.798;9.070;2023-04-23T00:34:57;0.10;;;0.10;;
11263;SDS011;5689;48.798;9.070;2023-04-23T00:37:26;0.10;;;0.10;;
11263;SDS011;5689;48.798;9.070;2023-04-23T00:39:54;0.13;;;0.13;;
11263;SDS011;5689;48.798;9.070;2023-04-23T00:42:22;0.15;;;0.15;;
11263;SDS011;5689;48.798;9.070;2023-04-23T00:44:50;0.10;;;0.10;;
11263;SDS011;5689;48.798;9.070;2023-04-23T00:47:18;0.10;;;0.10;;
11263;SDS011;5689;48.798;9.070;2023-04-23T00:49:46;0.10;;;0.10;;
11263;SDS011;5689;48.798;9.070;2023-04-23T00:52:16;0.10;;;0.10;;
11263;SDS011;5689;48.798;9.070;2023-04-23T00:54:45;0.20;;;0.20;;
11263;SDS011;5689;48.798;9.070;2023-04-23T00:57:13;0.10;;;0.10;;
11263;SDS011;5689;48.798;9.070;2023-04-23T00:59:42;0.20;;;0.20;;
11263;SDS011;5689;48.798;9.070;2023-04-23T01:02:11;0.10;;;0.10;;
11263;SDS011;5689;48.798;9.070;2023-04-23T01:04:39;0.10;;;0.10;;
11263;SDS011;5689;48.798;9.070;2023-04-23T01:07:09;0.13;;;0.13;;
11263;SDS011;5689;48.798;9.070;2023-04-23T01:09:38;0.10;;;0.10;;
11263;SDS011;5689;48.798;9.070;2023-04-23T01:12:09;0.20;;;0.20;;
11263;SDS011;5689;48.798;9.070;2023-04-23T01:14:37;0.20;;;0.20;;
11263;SDS011;5689;48.798;9.070;2023-04-23T01:17:05;0.10;;;0.10;;
11263;SDS011;5689;48.798;9.070;2023-04-23T01:19:35;0.10;;;0.10;;
11263;SDS011;5689;48.798;9.070;2023-04-23T01:22:07;0.17;;;0.17;;
11263;SDS011;5689;48.798;9.070;2023-04-23T01:24:35;0.10;;;0.10;;
11263;SDS011;5689;48.798;9.070;2023-04-23T01:27:04;0.20;;;0.20;;
11263;SDS011;5689;48.798;9.070;2023-04-23T01:29:32;0.10;;;0.10;;
11263;SDS011;5689;48.798;9.070;2023-04-23T01:32:01;0.20;;;0.20;;
11263;SDS011;5689;48.798;9.070;2023-04-23T01:34:29;0.15;;;0.15;;
11263;SDS011;5689;48.798;9.070;2023-04-23T01:36:59;0.20;;;0.20;;
11263;SDS011;5689;48.798;9.070;2023-04-23T01:39:29;0.10;;;0.10;;
11263;SDS011;5689;48.798;9.070;2023-04-23T01:41:57;0.20;;;0.20;;
11263;SDS011;5689;48.798;9.070;2023-04-23T01:44:29;0.20;;;0.20;;
11263;SDS011;5689;48.798;9.070;2023-04-23T01:46:59;0.20;;;0.20;;
11263;SDS011;5689;48.798;9.070;2023-04-23T01:49:29;0.20;;;0.20;;
11263;SDS011;5689;48.798;9.070;2023-04-23T01:51:58;0.20;;;0.20;;
11263;SDS011;5689;48.798;9.070;2023-04-23T01:54:26;0.20;;;0.20;;
11263;SDS011;5689;48.798;9.070;2023-04-23T01:56:55;0.10;;;0.10;;
11263;SDS011;5689;48.798;9.070;2023-04-23T01:59:24;0.10;;;0.10;;
11263;SDS011;5689;48.798;9.070;2023-04-23T02:01:51;0.20;;;0.20;;
11263;SDS011;5689;48.798;9.070;2023-04-23T02:04:19;0.20;;;0.20;;
11263;SDS011;5689;48.798;9.070;2023-04-23T02:06:50;0.20;;;0.20;;
11263;SDS011;5689;48.798;9.070;2023-04-23T02:09:18;0.20;;;0.20;;
11263;SDS011;5689;48.798;9.070;2023-04-23T02:11:46;0.25;;;0.25;;
11263;SDS011;5689;48.798;9.070;2023-04-23T02:14:16;0.20;;;0.20;;
11263;SDS011;5689;48.798;9.070;2023-04-23T02:16:45;0.20;;;0.20;;
11263;SDS011;5689;48.798;9.070;2023-04-23T02:19:13;0.20;;;0.20;;
11263;SDS011;5689;48.798;9.070;2023-04-23T02:21:42;0.10;;;0.10;;
11263;SDS011;5689;48.798;9.070;2023-04-23T02:24:10;0.20;;;0.20;;
11263;SDS011;5689;48.798;9.070;2023-04-23T02:26:38;0.20;;;0.20;;
11263;SDS011;5689;48.798;9.070;2023-04-23T02:29:06;0.20;;;0.20;;
11263;SDS011;5689;48.798;9.070;2023-04-23T02:31:36;0.10;;;0.10;;
11263;SDS011;5689;48.798;9.070;2023-04-23T02:34:04;0.20;;;0.20;;
11263;SDS011;5689;48.798;9.070;2023-04-23T02:36:31;0.10;;;0.10;;
11263;SDS011;5689;48.798;9.070;2023-04-23T02:38:59;0.10;;;0.10;;
11263;SDS011;5689;48.798;9.070;2023-04-23T02:41:27;0.10;;;0.10;;
11263;SDS011;5689;48.798;9.070;2023-04-23T02:43:55;0.15;;;0.15;;
11263;SDS011;5689;48.798;9.070;2023-04-23T02:46:23;0.20;;;0.20;;
11263;SDS011;5689;48.798;9.070;2023-04-23T02:48:52;0.20;;;0.20;;
11263;SDS011;5689;48.798;9.070;2023-04-23T02:51:21;0.20;;;0.20;;
11263;SDS011;5689;48.798;9.070;2023-04-23T02:53:48;0.10;;;0.10;;
11263;SDS011;5689;48.798;9.070;2023-04-23T02:56:16;0.20;;;0.20;;
11263;SDS011;5689;48.798;9.070;2023-04-23T02:58:45;0.10;;;0.10;;
11263;SDS011;5689;48.798;9.070;2023-04-23T03:01:13;0.20;;;0.20;;
11263;SDS011;5689;48.798;9.070;2023-04-23T03:03:41;0.20;;;0.20;;
11263;SDS011;5689;48.798;9.070;2023-04-23T03:06:10;0.30;;;0.30;;
11263;SDS011;5689;48.798;9.070;2023-04-23T03:08:38;0.20;;;0.20;;
11263;SDS011;5689;48.798;9.070;2023-04-23T03:11:06;0.20;;;0.20;;
11263;SDS011;5689;48.798;9.070;2023-04-23T03:13:34;0.20;;;0.20;;
11263;SDS011;5689;48.798;9.070;2023-04-23T03:16:02;0.20;;;0.20;;
11263;SDS011;5689;48.798;9.070;2023-04-23T03:18:30;0.15;;;0.15;;
11263;SDS011;5689;48.798;9.070;2023-04-23T03:20:58;0.20;;;0.20;;
11263;SDS011;5689;48.798;9.070;2023-04-23T03:23:27;0.20;;;0.20;;
11263;SDS011;5689;48.798;9.070;2023-04-23T03:25:56;0.20;;;0.20;;
11263;SDS011;5689;48.798;9.070;2023-04-23T03:28:24;0.30;;;0.30;;
11263;SDS011;5689;48.798;9.070;2023-04-23T03:30:52;0.20;;;0.20;;
11263;SDS011;5689;48.798;9.070;2023-04-23T03:33:19;0.20;;;0.20;;
11263;SDS011;5689;48.798;9.070;2023-04-23T03:35:47;0.20;;;0.20;;
11263;SDS011;5689;48.798;9.070;2023-04-23T03:38:20;0.20;;;0.20;;
11263;SDS011;5689;48.798;9.070;2023-04-23T03:40:51;0.20;;;0.20;;
11263;SDS011;5689;48.798;9.070;2023-04-23T03:43:20;0.20;;;0.20;;
11263;SDS011;5689;48.798;9.070;2023-04-23T03:46:19;0.20;;;0.20;;
11263;SDS011;5689;48.798;9.070;2023-04-23T03:48:47;0.20;;;0.20;;
11263;SDS011;5689;48.798;9.070;2023-04-23T03:51:22;0.20;;;0.20;;
11263;SDS011;5689;48.798;9.070;2023-04-23T03:53:50;0.13;;;0.13;;
11263;SDS011;5689;48.798;9.070;2023-04-23T03:56:39;0.22;;;0.22;;
11263;SDS011;5689;48.798;9.070;2023-04-23T03:59:22;0.20;;;0.20;;
11263;SDS011;5689;48.798;9.070;2023-04-23T04:01:52;0.20;;;0.20;;
11263;SDS011;5689;48.798;9.070;2023-04-23T04:04:20;0.15;;;0.15;;
11263;SDS011;5689;48.798;9.070;2023-04-23T04:06:49;0.28;;;0.28;;
11263;SDS011;5689;48.798;9.070;2023-04-23T04:09:17;0.20;;;0.20;;
11263;SDS011;5689;48.798;9.070;2023-04-23T04:11:46;0.20;;;0.20;;
11263;SDS011;5689;48.798;9.070;2023-04-23T04:14:14;0.20;;;0.20;;
11263;SDS011;5689;48.798;9.070;2023-04-23T04:16:42;0.20;;;0.20;;
11263;SDS011;5689;48.798;9.070;2023-04-23T04:19:10;0.20;;;0.20;;
11263;SDS011;5689;48.798;9.070;2023-04-23T04:21:38;0.20;;;0.20;;
11263;SDS011;5689;48.798;9.070;2023-04-23T04:24:06;0.30;;;0.30;;
11263;SDS011;5689;48.798;9.070;2023-04-23T04:26:36;0.20;;;0.20;;
11263;SDS011;5689;48.798;9.070;2023-04-23T04:29:06;0.20;;;0.20;;
11263;SDS011;5689;48.798;9.070;2023-04-23T04:31:35;0.30;;;0.30;;
11263;SDS011;5689;48.798;9.070;2023-04-23T04:34:03;0.30;;;0.30;;
11263;SDS011;5689;48.798;9.070;2023-04-23T04:36:32;0.28;;;0.28;;
11263;SDS011;5689;48.798;9.070;2023-04-23T04:39:00;0.20;;;0.20;;
11263;SDS011;5689;48.798;9.070;2023-04-23T04:41:28;0.22;;;0.22;;
11263;SDS011;5689;48.798;9.070;2023-04-23T04:43:57;0.20;;;0.20;;
11263;SDS011;5689;48.798;9.070;2023-04-23T04:46:26;0.20;;;0.20;;
11263;SDS011;5689;48.798;9.070;2023-04-23T04:48:54;0.22;;;0.22;;
11263;SDS011;5689;48.798;9.070;2023-04-23T04:51:22;0.20;;;0.20;;
11263;SDS011;5689;48.798;9.070;2023-04-23T04:53:50;0.20;;;0.20;;
11263;SDS011;5689;48.798;9.070;2023-04-23T04:56:18;0.30;;;0.30;;
11263;SDS011;5689;48.798;9.070;2023-04-23T04:58:47;0.20;;;0.20;;
11263;SDS011;5689;48.798;9.070;2023-04-23T05:01:15;0.20;;;0.20;;
11263;SDS011;5689;48.798;9.070;2023-04-23T05:03:44;0.20;;;0.20;;
11263;SDS011;5689;48.798;9.070;2023-04-23T05:06:12;0.20;;;0.20;;
11263;SDS011;5689;48.798;9.070;2023-04-23T05:08:40;0.22;;;0.22;;
11263;SDS011;5689;48.798;9.070;2023-04-23T05:11:13;0.20;;;0.20;;
11263;SDS011;5689;48.798;9.070;2023-04-23T05:13:41;0.20;;;0.20;;
11263;SDS011;5689;48.798;9.070;2023-04-23T05:16:09;0.20;;;0.20;;
11263;SDS011;5689;48.798;9.070;2023-04-23T05:18:38;0.20;;;0.20;;
11263;SDS011;5689;48.798;9.070;2023-04-23T05:21:07;0.15;;;0.15;;
11263;SDS011;5689;48.798;9.070;2023-04-23T05:23:35;0.20;;;0.20;;
11263;SDS011;5689;48.798;9.070;2023-04-23T05:26:03;0.20;;;0.20;;
11263;SDS011;5689;48.798;9.070;2023-04-23T05:28:31;0.20;;;0.20;;
11263;SDS011;5689;48.798;9.070;2023-04-23T05:30:59;0.20;;;0.20;;
11263;SDS011;5689;48.798;9.070;2023-04-23T05:33:27;0.20;;;0.20;;
11263;SDS011;5689;48.798;9.070;2023-04-23T05:35:58;0.20;;;0.20;;
11263;SDS011;5689;48.798;9.070;2023-04-23T05:38:27;0.20;;;0.20;;
11263;SDS011;5689;48.798;9.070;2023-04-23T05:40:55;0.10;;;0.10;;
11263;SDS011;5689;48.798;9.070;2023-04-23T05:43:24;0.20;;;0.20;;
11263;SDS011;5689;48.798;9.070;2023-04-23T05:45:52;0.10;;;0.10;;
11263;SDS011;5689;48.798;9.070;2023-04-23T05:48:19;0.13;;;0.13;;
11263;SDS011;5689;48.798;9.070;2023-04-23T05:50:47;0.20;;;0.20;;
11263;SDS011;5689;48.798;9.070;2023-04-23T05:53:16;0.20;;;0.20;;
11263;SDS011;5689;48.798;9.070;2023-04-23T05:55:45;0.20;;;0.20;;
11263;SDS011;5689;48.798;9.070;2023-04-23T05:58:13;0.15;;;0.15;;
11263;SDS011;5689;48.798;9.070;2023-04-23T06:00:41;0.13;;;0.13;;
11263;SDS011;5689;48.798;9.070;2023-04-23T06:03:09;0.17;;;0.17;;
11263;SDS011;5689;48.798;9.070;2023-04-23T06:05:37;0.20;;;0.20;;
11263;SDS011;5689;48.798;9.070;2023-04-23T06:08:12;0.10;;;0.10;;
11263;SDS011;5689;48.798;9.070;2023-04-23T06:10:51;0.10;;;0.10;;
11263;SDS011;5689;48.798;9.070;2023-04-23T06:13:21;0.20;;;0.20;;
11263;SDS011;5689;48.798;9.070;2023-04-23T06:15:49;0.20;;;0.20;;
11263;SDS011;5689;48.798;9.070;2023-04-23T06:18:17;0.10;;;0.10;;
11263;SDS011;5689;48.798;9.070;2023-04-23T06:20:45;0.20;;;0.20;;
11263;SDS011;5689;48.798;9.070;2023-04-23T06:23:14;0.20;;;0.20;;
11263;SDS011;5689;48.798;9.070;2023-04-23T06:25:41;0.10;;;0.10;;
11263;SDS011;5689;48.798;9.070;2023-04-23T06:28:11;0.10;;;0.10;;
11263;SDS011;5689;48.798;9.070;2023-04-23T06:30:59;0.10;;;0.10;;
11263;SDS011;5689;48.798;9.070;2023-04-23T06:33:27;0.10;;;0.10;;
11263;SDS011;5689;48.798;9.070;2023-04-23T06:35:56;0.20;;;0.20;;
11263;SDS011;5689;48.798;9.070;2023-04-23T06:38:24;0.17;;;0.17;;
11263;SDS011;5689;48.798;9.070;2023-04-23T06:40:51;0.10;;;0.10;;
11263;SDS011;5689;48.798;9.070;2023-04-23T06:43:21;0.20;;;0.20;;
11263;SDS011;5689;48.798;9.070;2023-04-23T06:46:17;0.20;;;0.20;;
11263;SDS011;5689;48.798;9.070;2023-04-23T06:48:45;0.20;;;0.20;;
11263;SDS011;5689;48.798;9.070;2023-04-23T06:51:13;0.20;;;0.20;;
11263;SDS011;5689;48.798;9.070;2023-04-23T06:53:42;0.10;;;0.10;;
11263;SDS011;5689;48.798;9.070;2023-04-23T06:56:10;0.20;;;0.20;;
11263;SDS011;5689;48.798;9.070;2023-04-23T06:58:39;0.10;;;0.10;;
11263;SDS011;5689;48.798;9.070;2023-04-23T07:01:15;0.10;;;0.10;;
11263;SDS011;5689;48.798;9.070;2023-04-23T07:03:43;0.10;;;0.10;;
11263;SDS011;5689;48.798;9.070;2023-04-23T07:06:14;0.10;;;0.10;;
11263;SDS011;5689;48.798;9.070;2023-04-23T07:08:42;0.20;;;0.20;;
11263;SDS011;5689;48.798;9.070;2023-04-23T07:11:10;0.20;;;0.20;;
11263;SDS011;5689;48.798;9.070;2023-04-23T07:13:40;0.10;;;0.10;;
11263;SDS011;5689;48.798;9.070;2023-04-23T07:16:08;0.20;;;0.20;;
11263;SDS011;5689;48.798;9.070;2023-04-23T07:18:36;0.10;;;0.10;;
11263;SDS011;5689;48.798;9.070;2023-04-23T07:21:04;0.10;;;0.10;;
11263;SDS011;5689;48.798;9.070;2023-04-23T07:23:33;0.10;;;0.10;;
11263;SDS011;5689;48.798;9.070;2023-04-23T07:26:01;0.10;;;0.10;;
11263;SDS011;5689;48.798;9.070;2023-04-23T07:28:29;0.10;;;0.10;;
11263;SDS011;5689;48.798;9.070;2023-04-23T07:30:58;0.10;;;0.10;;
11263;SDS011;5689;48.798;9.070;2023-04-23T07:33:26;0.10;;;0.10;;
11263;SDS011;5689;48.798;9.070;2023-04-23T07:35:54;0.10;;;0.10;;
11263;SDS011;5689;48.798;9.070;2023-04-23T07:38:22;0.10;;;0.10;;
11263;SDS011;5689;48.798;9.070;2023-04-23T07:40:50;0.10;;;0.10;;
11263;SDS011;5689;48.798;9.070;2023-04-23T07:43:18;0.10;;;0.10;;
11263;SDS011;5689;48.798;9.070;2023-04-23T07:45:46;0.10;;;0.10;;
11263;SDS011;5689;48.798;9.070;2023-04-23T07:48:15;0.10;;;0.10;;
11263;SDS011;5689;48.798;9.070;2023-04-23T07:50:43;0.10;;;0.10;;
11263;SDS011;5689;48.798;9.070;2023-04-23T07:53:11;0.10;;;0.10;;
11263;SDS011;5689;48.798;9.070;2023-04-23T07:55:39;0.15;;;0.15;;
11263;SDS011;5689;48.798;9.070;2023-04-23T07:58:07;0.13;;;0.13;;
11263;SDS011;5689;48.798;9.070;2023-04-23T08:00:35;0.10;;;0.10;;
11263;SDS011;5689;48.798;9.070;2023-04-23T08:03:03;0.10;;;0.10;;
11263;SDS011;5689;48.798;9.070;2023-04-23T08:05:32;0.10;;;0.10;;
11263;SDS011;5689;48.798;9.070;2023-04-23T08:08:02;0.10;;;0.10;;
11263;SDS011;5689;48.798;9.070;2023-04-23T08:10:30;0.10;;;0.10;;
11263;SDS011;5689;48.798;9.070;2023-04-23T08:12:58;0.10;;;0.10;;
11263;SDS011;5689;48.798;9.070;2023-04-23T08:15:26;0.10;;;0.10;;
11263;SDS011;5689;48.798;9.070;2023-04-23T08:17:55;0.10;;;0.10;;
11263;SDS011;5689;48.798;9.070;2023-04-23T08:20:23;0.10;;;0.10;;
11263;SDS011;5689;48.798;9.070;2023-04-23T08:22:53;0.10;;;0.10;;
11263;SDS011;5689;48.798;9.070;2023-04-23T08:25:21;0.10;;;0.10;;
11263;SDS011;5689;48.798;9.070;2023-04-23T08:27:50;0.10;;;0.10;;
11263;SDS011;5689;48.798;9.070;2023-04-23T08:30:17;0.10;;;0.10;;
11263;SDS011;5689;48.798;9.070;2023-04-23T08:32:47;0.10;;;0.10;;
11263;SDS011;5689;48.798;9.070;2023-04-23T08:35:16;0.10;;;0.10;;
11263;SDS011;5689;48.798;9.070;2023-04-23T08:37:44;0.10;;;0.10;;
11263;SDS011;5689;48.798;9.070;2023-04-23T08:40:13;0.10;;;0.10;;
11263;SDS011;5689;48.798;9.070;2023-04-23T08:42:42;0.10;;;0.10;;
11263;SDS011;5689;48.798;9.070;2023-04-23T08:45:15;0.10;;;0.10;;
11263;SDS011;5689;48.798;9.070;2023-04-23T08:47:43;0.10;;;0.10;;
11263;SDS011;5689;48.798;9.070;2023-04-23T08:50:12;0.20;;;0.20;;
11263;SDS011;5689;48.798;9.070;2023-04-23T08:52:45;0.10;;;0.10;;
11263;SDS011;5689;48.798;9.070;2023-04-23T08:55:15;0.10;;;0.10;;
11263;SDS011;5689;48.798;9.070;2023-04-23T08:57:45;0.20;;;0.20;;
11263;SDS011;5689;48.798;9.070;2023-04-23T09:00:14;0.08;;;0.08;;
11263;SDS011;5689;48.798;9.070;2023-04-23T09:02:44;0.00;;;0.00;;
11263;SDS011;5689;48.798;9.070;2023-04-23T09:05:14;0.00;;;0.00;;
11263;SDS011;5689;48.798;9.070;2023-04-23T09:07:42;0.00;;;0.00;;
11263;SDS011;5689;48.798;9.070;2023-04-23T09:10:11;0.08;;;0.08;;
11263;SDS011;5689;48.798;9.070;2023-04-23T09:12:43;0.10;;;0.10;;
11263;SDS011;5689;48.798;9.070;2023-04-23T09:15:12;0.10;;;0.10;;
11263;SDS011;5689;48.798;9.070;2023-04-23T09:17:42;0.10;;;0.10;;
11263;SDS011;5689;48.798;9.070;2023-04-23T09:20:12;0.10;;;0.10;;
11263;SDS011;5689;48.798;9.070;2023-04-23T09:22:41;0.10;;;0.10;;
11263;SDS011;5689;48.798;9.070;2023-04-23T09:25:12;0.10;;;0.10;;
11263;SDS011;5689;48.798;9.070;2023-04-23T09:27:43;0.10;;;0.10;;
11263;SDS011;5689;48.798;9.070;2023-04-23T09:30:11;0.10;;;0.10;;
11263;SDS011;5689;48.798;9.070;2023-04-23T09:32:42;0.10;;;0.10;;
11263;SDS011;5689;48.798;9.070;2023-04-23T09:35:12;0.10;;;0.10;;
11263;SDS011;5689;48.798;9.070;2023-04-23T09:37:42;0.10;;;0.10;;
11263;SDS011;5689;48.798;9.070;2023-04-23T09:40:14;0.10;;;0.10;;
11263;SDS011;5689;48.798;9.070;2023-04-23T09:42:47;0.10;;;0.10;;
11263;SDS011;5689;48.798;9.070;2023-04-23T09:45:16;0.10;;;0.10;;
11263;SDS011;5689;48.798;9.070;2023-04-23T09:47:47;0.10;;;0.10;;
11263;SDS011;5689;48.798;9.070;2023-04-23T09:50:17;0.10;;;0.10;;
11263;SDS011;5689;48.798;9.070;2023-04-23T09:52:45;0.10;;;0.10;;
11263;SDS011;5689;48.798;9.070;2023-04-23T09:55:26;0.10;;;0.10;;
11263;SDS011;5689;48.798;9.070;2023-04-23T09:57:57;0.10;;;0.10;;
11263;SDS011;5689;48.798;9.070;2023-04-23T10:00:25;0.00;;;0.00;;
11263;SDS011;5689;48.798;9.070;2023-04-23T10:02:59;0.10;;;0.10;;
11263;SDS011;5689;48.798;9.070;2023-04-23T10:05:28;0.10;;;0.10;;
11263;SDS011;5689;48.798;9.070;2023-04-23T10:07:59;0.00;;;0.00;;
11263;SDS011;5689;48.798;9.070;2023-04-23T10:10:29;0.10;;;0.10;;
11263;SDS011;5689;48.798;9.070;2023-04-23T10:12:58;0.10;;;0.10;;
11263;SDS011;5689;48.798;9.070;2023-04-23T10:15:27;0.10;;;0.10;;
11263;SDS011;5689;48.798;9.070;2023-04-23T10:17:55;0.10;;;0.10;;
11263;SDS011;5689;48.798;9.070;2023-04-23T10:20:24;0.10;;;0.10;;
11263;SDS011;5689;48.798;9.070;2023-04-23T10:22:52;0.10;;;0.10;;
11263;SDS011;5689;48.798;9.070;2023-04-23T10:25:22;0.10;;;0.10;;
11263;SDS011;5689;48.798;9.070;2023-04-23T10:27:51;0.10;;;0.10;;
11263;SDS011;5689;48.798;9.070;2023-04-23T10:30:22;0.10;;;0.10;;
11263;SDS011;5689;48.798;9.070;2023-04-23T10:32:50;0.10;;;0.10;;
11263;SDS011;5689;48.798;9.070;2023-04-23T10:35:20;0.05;;;0.05;;
11263;SDS011;5689;48.798;9.070;2023-04-23T10:37:48;0.10;;;0.10;;
11263;SDS011;5689;48.798;9.070;2023-04-23T10:40:17;0.00;;;0.00;;
11263;SDS011;5689;48.798;9.070;2023-04-23T10:42:48;0.05;;;0.05;;
11263;SDS011;5689;48.798;9.070;2023-04-23T10:45:17;0.00;;;0.00;;
11263;SDS011;5689;48.798;9.070;2023-04-23T10:47:51;0.00;;;0.00;;
11263;SDS011;5689;48.798;9.070;2023-04-23T10:50:21;0.00;;;0.00;;
11263;SDS011;5689;48.798;9.070;2023-04-23T10:52:50;0.00;;;0.00;;
11263;SDS011;5689;48.798;9.070;2023-04-23T10:55:20;0.00;;;0.00;;
11263;SDS011;5689;48.798;9.070;2023-04-23T10:57:54;0.00;;;0.00;;
11263;SDS011;5689;48.798;9.070;2023-04-23T11:00:25;0.10;;;0.10;;
11263;SDS011;5689;48.798;9.070;2023-04-23T11:02:56;0.00;;;0.00;;
11263;SDS011;5689;48.798;9.070;2023-04-23T11:05:24;0.00;;;0.00;;
11263;SDS011;5689;48.798;9.070;2023-04-23T11:08:04;0.00;;;0.00;;
11263;SDS011;5689;48.798;9.070;2023-04-23T11:10:50;0.10;;;0.10;;
11263;SDS011;5689;48.798;9.070;2023-04-23T11:13:23;0.00;;;0.00;;
11263;SDS011;5689;48.798;9.070;2023-04-23T11:18:56;0.00;;;0.00;;
11263;SDS011;5689;48.798;9.070;2023-04-23T11:24:28;0.00;;;0.00;;
11263;SDS011;5689;48.798;9.070;2023-04-23T11:26:57;0.00;;;0.00;;
11263;SDS011;5689;48.798;9.070;2023-04-23T11:29:26;0.00;;;0.00;;
11263;SDS011;5689;48.798;9.070;2023-04-23T11:31:55;0.00;;;0.00;;
11263;SDS011;5689;48.798;9.070;2023-04-23T11:34:28;0.00;;;0.00;;
11263;SDS011;5689;48.798;9.070;2023-04-23T11:36:57;0.10;;;0.10;;
11263;SDS011;5689;48.798;9.070;2023-04-23T11:39:26;0.10;;;0.10;;
11263;SDS011;5689;48.798;9.070;2023-04-23T11:41:54;0.10;;;0.10;;
11263;SDS011;5689;48.798;9.070;2023-04-23T11:44:24;0.10;;;0.10;;
11263;SDS011;5689;48.798;9.070;2023-04-23T11:46:52;0.00;;;0.00;;
11263;SDS011;5689;48.798;9.070;2023-04-23T11:49:21;0.00;;;0.00;;
11263;SDS011;5689;48.798;9.070;2023-04-23T11:51:51;0.10;;;0.10;;
11263;SDS011;5689;48.798;9.070;2023-04-23T11:54:23;0.10;;;0.10;;
11263;SDS011;5689;48.798;9.070;2023-04-23T11:56:52;0.10;;;0.10;;
11263;SDS011;5689;48.798;9.070;2023-04-23T11:59:21;0.00;;;0.00;;
11263;SDS011;5689;48.798;9.070;2023-04-23T12:01:50;0.10;;;0.10;;
11263;SDS011;5689;48.798;9.070;2023-04-23T12:04:24;0.00;;;0.00;;
11263;SDS011;5689;48.798;9.070;2023-04-23T12:06:54;0.00;;;0.00;;
11263;SDS011;5689;48.798;9.070;2023-04-23T12:09:24;0.10;;;0.10;;
11263;SDS011;5689;48.798;9.070;2023-04-23T12:11:53;0.00;;;0.00;;
11263;SDS011;5689;48.798;9.070;2023-04-23T12:14:25;0.10;;;0.10;;
11263;SDS011;5689;48.798;9.070;2023-04-23T12:16:55;0.00;;;0.00;;
11263;SDS011;5689;48.798;9.070;2023-04-23T12:19:27;0.10;;;0.10;;
11263;SDS011;5689;48.798;9.070;2023-04-23T12:21:58;0.10;;;0.10;;
11263;SDS011;5689;48.798;9.070;2023-04-23T12:24:27;0.10;;;0.10;;
11263;SDS011;5689;48.798;9.070;2023-04-23T12:26:57;0.00;;;0.00;;
11263;SDS011;5689;48.798;9.070;2023-04-23T12:29:28;0.00;;;0.00;;
11263;SDS011;5689;48.798;9.070;2023-04-23T12:31:57;0.00;;;0.00;;
11263;SDS011;5689;48.798;9.070;2023-04-23T12:34:26;0.00;;;0.00;;
11263;SDS011;5689;48.798;9.070;2023-04-23T12:36:54;0.20;;;0.20;;
11263;SDS011;5689;48.798;9.070;2023-04-23T12:39:25;0.10;;;0.10;;
11263;SDS011;5689;48.798;9.070;2023-04-23T12:41:59;0.10;;;0.10;;
11263;SDS011;5689;48.798;9.070;2023-04-23T12:44:30;0.00;;;0.00;;
11263;SDS011;5689;48.798;9.070;2023-04-23T12:47:00;0.00;;;0.00;;
11263;SDS011;5689;48.798;9.070;2023-04-23T12:49:30;0.00;;;0.00;;
11263;SDS011;5689;48.798;9.070;2023-04-23T12:52:00;0.00;;;0.00;;
11263;SDS011;5689;48.798;9.070;2023-04-23T12:54:31;0.00;;;0.00;;
11263;SDS011;5689;48.798;9.070;2023-04-23T12:57:02;0.00;;;0.00;;
11263;SDS011;5689;48.798;9.070;2023-04-23T12:59:31;0.10;;;0.10;;
11263;SDS011;5689;48.798;9.070;2023-04-23T13:02:00;0.10;;;0.10;;
11263;SDS011;5689;48.798;9.070;2023-04-23T13:04:29;0.00;;;0.00;;
11263;SDS011;5689;48.798;9.070;2023-04-23T13:06:57;0.10;;;0.10;;
11263;SDS011;5689;48.798;9.070;2023-04-23T13:09:27;0.05;;;0.05;;
11263;SDS011;5689;48.798;9.070;2023-04-23T13:11:57;0.00;;;0.00;;
11263;SDS011;5689;48.798;9.070;2023-04-23T13:14:25;0.00;;;0.00;;
11263;SDS011;5689;48.798;9.070;2023-04-23T13:16:53;0.00;;;0.00;;
11263;SDS011;5689;48.798;9.070;2023-04-23T13:19:23;0.00;;;0.00;;
11263;SDS011;5689;48.798;9.070;2023-04-23T13:21:51;0.10;;;0.10;;
11263;SDS011;5689;48.798;9.070;2023-04-23T13:24:19;0.00;;;0.00;;
11263;SDS011;5689;48.798;9.070;2023-04-23T13:26:47;0.00;;;0.00;;
11263;SDS011;5689;48.798;9.070;2023-04-23T13:29:17;0.00;;;0.00;;
11263;SDS011;5689;48.798;9.070;2023-04-23T13:31:46;0.00;;;0.00;;
11263;SDS011;5689;48.798;9.070;2023-04-23T13:34:14;0.10;;;0.10;;
11263;SDS011;5689;48.798;9.070;2023-04-23T13:36:43;0.00;;;0.00;;
11263;SDS011;5689;48.798;9.070;2023-04-23T13:39:11;0.00;;;0.00;;
11263;SDS011;5689;48.798;9.070;2023-04-23T13:41:39;0.00;;;0.00;;
11263;SDS011;5689;48.798;9.070;2023-04-23T13:44:07;0.10;;;0.10;;
11263;SDS011;5689;48.798;9.070;2023-04-23T13:46:36;0.00;;;0.00;;
11263;SDS011;5689;48.798;9.070;2023-04-23T13:49:05;0.00;;;0.00;;
11263;SDS011;5689;48.798;9.070;2023-04-23T13:51:33;0.00;;;0.00;;
11263;SDS011;5689;48.798;9.070;2023-04-23T13:54:01;0.00;;;0.00;;
11263;SDS011;5689;48.798;9.070;2023-04-23T13:56:30;0.10;;;0.10;;
11263;SDS011;5689;48.798;9.070;2023-04-23T13:58:58;0.10;;;0.10;;
11263;SDS011;5689;48.798;9.070;2023-04-23T14:01:38;0.08;;;0.08;;
11263;SDS011;5689;48.798;9.070;2023-04-23T14:04:06;0.08;;;0.08;;
11263;SDS011;5689;48.798;9.070;2023-04-23T14:06:34;0.00;;;0.00;;
11263;SDS011;5689;48.798;9.070;2023-04-23T14:09:02;0.00;;;0.00;;
11263;SDS011;5689;48.798;9.070;2023-04-23T14:11:30;0.00;;;0.00;;
11263;SDS011;5689;48.798;9.070;2023-04-23T14:13:58;0.08;;;0.08;;
11263;SDS011;5689;48.798;9.070;2023-04-23T14:16:26;0.10;;;0.10;;
11263;SDS011;5689;48.798;9.070;2023-04-23T14:18:56;0.00;;;0.00;;
11263;SDS011;5689;48.798;9.070;2023-04-23T14:21:24;0.00;;;0.00;;
11263;SDS011;5689;48.798;9.070;2023-04-23T14:23:54;0.00;;;0.00;;
11263;SDS011;5689;48.798;9.070;2023-04-23T14:26:27;0.10;;;0.10;;
11263;SDS011;5689;48.798;9.070;2023-04-23T14:29:08;0.00;;;0.00;;
11263;SDS011;5689;48.798;9.070;2023-04-23T14:31:37;0.03;;;0.03;;
11263;SDS011;5689;48.798;9.070;2023-04-23T14:34:07;0.03;;;0.03;;
11263;SDS011;5689;48.798;9.070;2023-04-23T14:36:35;0.00;;;0.00;;
11263;SDS011;5689;48.798;9.070;2023-04-23T14:39:03;0.00;;;0.00;;
11263;SDS011;5689;48.798;9.070;2023-04-23T14:41:31;0.10;;;0.10;;
11263;SDS011;5689;48.798;9.070;2023-04-23T14:43:59;0.00;;;0.00;;
11263;SDS011;5689;48.798;9.070;2023-04-23T14:46:28;0.05;;;0.05;;
11263;SDS011;5689;48.798;9.070;2023-04-23T14:48:56;0.00;;;0.00;;
11263;SDS011;5689;48.798;9.070;2023-04-23T14:51:25;0.05;;;0.05;;
11263;SDS011;5689;48.798;9.070;2023-04-23T14:53:53;0.00;;;0.00;;
11263;SDS011;5689;48.798;9.070;2023-04-23T14:56:22;0.10;;;0.10;;
11263;SDS011;5689;48.798;9.070;2023-04-23T14:58:50;0.10;;;0.10;;
11263;SDS011;5689;48.798;9.070;2023-04-23T15:01:18;0.00;;;0.00;;
11263;SDS011;5689;48.798;9.070;2023-04-23T15:03:46;0.00;;;0.00;;
11263;SDS011;5689;48.798;9.070;2023-04-23T15:06:13;0.00;;;0.00;;
11263;SDS011;5689;48.798;9.070;2023-04-23T15:08:43;0.00;;;0.00;;
11263;SDS011;5689;48.798;9.070;2023-04-23T15:11:11;0.00;;;0.00;;
11263;SDS011;5689;48.798;9.070;2023-04-23T15:13:42;0.00;;;0.00;;
11263;SDS011;5689;48.798;9.070;2023-04-23T15:16:18;0.00;;;0.00;;
11263;SDS011;5689;48.798;9.070;2023-04-23T15:19:05;0.00;;;0.00;;